sensor_id;sensor_type;location;lat;lon;timestamp;P1;durP1;ratioP1;P2;durP2;ratioP2
50821;SDS011;36794;51.212;6.980;2023-09-18T00:02:12;11.88;;;3.38;;
50821;SDS011;36794;51.212;6.980;2023-09-18T00:04:38;11.80;;;3.50;;
50821;SDS011;36794;51.212;6.980;2023-09-18T00:07:04;9.27;;;3.00;;
50821;SDS011;36794;51.212;6.980;2023-09-18T00:09:30;10.23;;;2.90;;
50821;SDS011;36794;51.212;6.980;2023-09-18T00:11:56;9.63;;;2.88;;
50821;SDS011;36794;51.212;6.980;2023-09-18T00:14:22;9.20;;;3.00;;
50821;SDS011;36794;51.212;6.980;2023-09-18T00:16:48;5.45;;;3.05;;
50821;SDS011;36794;51.212;6.980;2023-09-18T00:19:14;14.77;;;3.88;;
50821;SDS011;36794;51.212;6.980;2023-09-18T00:21:40;11.57;;;3.28;;
50821;SDS011;36794;51.212;6.980;2023-09-18T00:24:06;8.90;;;2.97;;
50821;SDS011;36794;51.212;6.980;2023-09-18T00:26:33;9.80;;;2.75;;
50821;SDS011;36794;51.212;6.980;2023-09-18T00:28:59;7.68;;;2.60;;
50821;SDS011;36794;51.212;6.980;2023-09-18T00:31:25;12.02;;;3.08;;
50821;SDS011;36794;51.212;6.980;2023-09-18T00:33:51;11.27;;;3.00;;
50821;SDS011;36794;51.212;6.980;2023-09-18T00:36:17;11.10;;;2.90;;
50821;SDS011;36794;51.212;6.980;2023-09-18T00:38:42;6.03;;;2.88;;
50821;SDS011;36794;51.212;6.980;2023-09-18T00:41:09;11.88;;;3.28;;
50821;SDS011;36794;51.212;6.980;2023-09-18T00:43:35;9.15;;;2.90;;
50821;SDS011;36794;51.212;6.980;2023-09-18T00:46:01;15.00;;;3.58;;
50821;SDS011;36794;51.212;6.980;2023-09-18T00:48:27;12.73;;;2.80;;
50821;SDS011;36794;51.212;6.980;2023-09-18T00:50:53;10.27;;;2.97;;
50821;SDS011;36794;51.212;6.980;2023-09-18T00:53:20;13.32;;;2.97;;
50821;SDS011;36794;51.212;6.980;2023-09-18T00:55:47;11.75;;;3.03;;
50821;SDS011;36794;51.212;6.980;2023-09-18T00:58:14;10.80;;;3.03;;
50821;SDS011;36794;51.212;6.980;2023-09-18T01:00:41;9.60;;;3.08;;
50821;SDS011;36794;51.212;6.980;2023-09-18T01:03:07;8.57;;;2.85;;
50821;SDS011;36794;51.212;6.980;2023-09-18T01:05:33;8.05;;;2.92;;
50821;SDS011;36794;51.212;6.980;2023-09-18T01:08:00;10.75;;;2.92;;
50821;SDS011;36794;51.212;6.980;2023-09-18T01:10:29;11.38;;;3.10;;
50821;SDS011;36794;51.212;6.980;2023-09-18T01:13:06;7.68;;;2.65;;
50821;SDS011;36794;51.212;6.980;2023-09-18T01:15:39;8.02;;;2.80;;
50821;SDS011;36794;51.212;6.980;2023-09-18T01:18:10;8.68;;;2.92;;
50821;SDS011;36794;51.212;6.980;2023-09-18T01:20:36;9.82;;;2.97;;
50821;SDS011;36794;51.212;6.980;2023-09-18T01:23:02;7.13;;;3.10;;
50821;SDS011;36794;51.212;6.980;2023-09-18T01:25:28;9.15;;;3.03;;
50821;SDS011;36794;51.212;6.980;2023-09-18T01:27:57;13.57;;;3.30;;
50821;SDS011;36794;51.212;6.980;2023-09-18T01:30:23;8.45;;;2.97;;
50821;SDS011;36794;51.212;6.980;2023-09-18T01:32:49;10.77;;;3.08;;
50821;SDS011;36794;51.212;6.980;2023-09-18T01:35:16;8.18;;;2.72;;
50821;SDS011;36794;51.212;6.980;2023-09-18T01:37:42;12.05;;;3.25;;
50821;SDS011;36794;51.212;6.980;2023-09-18T01:40:09;10.63;;;3.08;;
50821;SDS011;36794;51.212;6.980;2023-09-18T01:42:36;8.60;;;2.88;;
50821;SDS011;36794;51.212;6.980;2023-09-18T01:45:02;13.60;;;2.78;;
50821;SDS011;36794;51.212;6.980;2023-09-18T01:47:29;11.25;;;3.13;;
50821;SDS011;36794;51.212;6.980;2023-09-18T01:49:56;10.60;;;3.38;;
50821;SDS011;36794;51.212;6.980;2023-09-18T01:52:22;8.32;;;3.45;;
50821;SDS011;36794;51.212;6.980;2023-09-18T01:54:48;9.93;;;2.85;;
50821;SDS011;36794;51.212;6.980;2023-09-18T01:57:14;8.00;;;2.70;;
50821;SDS011;36794;51.212;6.980;2023-09-18T01:59:40;5.90;;;2.67;;
50821;SDS011;36794;51.212;6.980;2023-09-18T02:02:07;9.20;;;3.00;;
50821;SDS011;36794;51.212;6.980;2023-09-18T02:04:34;9.57;;;2.88;;
50821;SDS011;36794;51.212;6.980;2023-09-18T02:07:00;8.50;;;2.85;;
50821;SDS011;36794;51.212;6.980;2023-09-18T02:09:26;9.35;;;2.60;;
50821;SDS011;36794;51.212;6.980;2023-09-18T02:11:52;10.82;;;2.65;;
50821;SDS011;36794;51.212;6.980;2023-09-18T02:14:18;11.10;;;3.25;;
50821;SDS011;36794;51.212;6.980;2023-09-18T02:16:44;11.70;;;3.15;;
50821;SDS011;36794;51.212;6.980;2023-09-18T02:19:11;7.53;;;3.13;;
50821;SDS011;36794;51.212;6.980;2023-09-18T02:21:38;9.55;;;3.10;;
50821;SDS011;36794;51.212;6.980;2023-09-18T02:24:04;7.55;;;3.08;;
50821;SDS011;36794;51.212;6.980;2023-09-18T02:26:30;14.77;;;3.30;;
50821;SDS011;36794;51.212;6.980;2023-09-18T02:29:00;10.98;;;3.22;;
50821;SDS011;36794;51.212;6.980;2023-09-18T02:31:26;7.57;;;2.80;;
50821;SDS011;36794;51.212;6.980;2023-09-18T02:33:52;8.27;;;2.50;;
50821;SDS011;36794;51.212;6.980;2023-09-18T02:36:18;15.15;;;2.72;;
50821;SDS011;36794;51.212;6.980;2023-09-18T02:38:44;6.47;;;2.60;;
50821;SDS011;36794;51.212;6.980;2023-09-18T02:41:10;10.55;;;3.00;;
50821;SDS011;36794;51.212;6.980;2023-09-18T02:43:36;8.57;;;2.63;;
50821;SDS011;36794;51.212;6.980;2023-09-18T02:46:03;7.57;;;2.75;;
50821;SDS011;36794;51.212;6.980;2023-09-18T02:48:30;14.98;;;3.28;;
50821;SDS011;36794;51.212;6.980;2023-09-18T02:50:55;11.93;;;2.65;;
50821;SDS011;36794;51.212;6.980;2023-09-18T02:53:22;8.38;;;2.78;;
50821;SDS011;36794;51.212;6.980;2023-09-18T02:55:50;6.93;;;2.53;;
50821;SDS011;36794;51.212;6.980;2023-09-18T02:58:16;11.13;;;2.97;;
50821;SDS011;36794;51.212;6.980;2023-09-18T03:00:44;7.35;;;2.80;;
50821;SDS011;36794;51.212;6.980;2023-09-18T03:03:10;9.02;;;2.70;;
50821;SDS011;36794;51.212;6.980;2023-09-18T03:05:36;8.13;;;2.85;;
50821;SDS011;36794;51.212;6.980;2023-09-18T03:08:02;9.70;;;3.08;;
50821;SDS011;36794;51.212;6.980;2023-09-18T03:10:32;6.28;;;2.72;;
50821;SDS011;36794;51.212;6.980;2023-09-18T03:12:58;14.23;;;3.30;;
50821;SDS011;36794;51.212;6.980;2023-09-18T03:15:25;8.68;;;3.25;;
50821;SDS011;36794;51.212;6.980;2023-09-18T03:17:51;10.30;;;3.17;;
50821;SDS011;36794;51.212;6.980;2023-09-18T03:20:17;7.38;;;2.83;;
50821;SDS011;36794;51.212;6.980;2023-09-18T03:22:43;10.95;;;3.60;;
50821;SDS011;36794;51.212;6.980;2023-09-18T03:25:09;9.98;;;3.05;;
50821;SDS011;36794;51.212;6.980;2023-09-18T03:27:35;11.00;;;2.97;;
50821;SDS011;36794;51.212;6.980;2023-09-18T03:30:01;9.93;;;3.17;;
50821;SDS011;36794;51.212;6.980;2023-09-18T03:32:27;12.30;;;2.88;;
50821;SDS011;36794;51.212;6.980;2023-09-18T03:34:53;10.60;;;2.60;;
50821;SDS011;36794;51.212;6.980;2023-09-18T03:37:19;6.90;;;3.47;;
50821;SDS011;36794;51.212;6.980;2023-09-18T03:39:45;11.35;;;3.20;;
50821;SDS011;36794;51.212;6.980;2023-09-18T03:42:11;8.77;;;3.40;;
50821;SDS011;36794;51.212;6.980;2023-09-18T03:44:37;11.48;;;3.05;;
50821;SDS011;36794;51.212;6.980;2023-09-18T03:47:03;7.05;;;3.17;;
50821;SDS011;36794;51.212;6.980;2023-09-18T03:49:29;11.48;;;3.25;;
50821;SDS011;36794;51.212;6.980;2023-09-18T03:51:55;13.38;;;3.28;;
50821;SDS011;36794;51.212;6.980;2023-09-18T03:54:21;9.90;;;3.22;;
50821;SDS011;36794;51.212;6.980;2023-09-18T03:56:47;8.48;;;3.25;;
50821;SDS011;36794;51.212;6.980;2023-09-18T03:59:13;9.57;;;3.60;;
50821;SDS011;36794;51.212;6.980;2023-09-18T04:01:39;11.70;;;3.40;;
50821;SDS011;36794;51.212;6.980;2023-09-18T04:04:05;12.52;;;3.70;;
50821;SDS011;36794;51.212;6.980;2023-09-18T04:06:41;10.98;;;4.18;;
50821;SDS011;36794;51.212;6.980;2023-09-18T04:09:08;10.52;;;3.70;;
50821;SDS011;36794;51.212;6.980;2023-09-18T04:11:34;12.00;;;4.00;;
50821;SDS011;36794;51.212;6.980;2023-09-18T04:14:00;13.27;;;4.30;;
50821;SDS011;36794;51.212;6.980;2023-09-18T04:16:26;11.07;;;3.95;;
50821;SDS011;36794;51.212;6.980;2023-09-18T04:19:02;10.02;;;3.72;;
50821;SDS011;36794;51.212;6.980;2023-09-18T04:21:28;14.15;;;4.63;;
50821;SDS011;36794;51.212;6.980;2023-09-18T04:23:57;14.55;;;4.10;;
50821;SDS011;36794;51.212;6.980;2023-09-18T04:26:24;12.35;;;3.38;;
50821;SDS011;36794;51.212;6.980;2023-09-18T04:28:54;14.60;;;3.38;;
50821;SDS011;36794;51.212;6.980;2023-09-18T04:31:20;8.40;;;3.20;;
50821;SDS011;36794;51.212;6.980;2023-09-18T04:33:46;11.85;;;3.72;;
50821;SDS011;36794;51.212;6.980;2023-09-18T04:36:12;11.13;;;3.53;;
50821;SDS011;36794;51.212;6.980;2023-09-18T04:38:38;17.50;;;3.22;;
50821;SDS011;36794;51.212;6.980;2023-09-18T04:41:04;11.95;;;3.28;;
50821;SDS011;36794;51.212;6.980;2023-09-18T04:43:32;11.05;;;3.90;;
50821;SDS011;36794;51.212;6.980;2023-09-18T04:45:58;13.27;;;4.00;;
50821;SDS011;36794;51.212;6.980;2023-09-18T04:48:24;15.52;;;4.03;;
50821;SDS011;36794;51.212;6.980;2023-09-18T04:50:49;17.67;;;3.83;;
50821;SDS011;36794;51.212;6.980;2023-09-18T04:53:15;15.18;;;4.38;;
50821;SDS011;36794;51.212;6.980;2023-09-18T04:55:41;13.25;;;3.92;;
50821;SDS011;36794;51.212;6.980;2023-09-18T04:58:07;14.00;;;3.92;;
50821;SDS011;36794;51.212;6.980;2023-09-18T05:00:33;13.82;;;3.70;;
50821;SDS011;36794;51.212;6.980;2023-09-18T05:02:59;19.13;;;4.20;;
50821;SDS011;36794;51.212;6.980;2023-09-18T05:05:26;11.27;;;4.40;;
50821;SDS011;36794;51.212;6.980;2023-09-18T05:07:54;17.23;;;5.10;;
50821;SDS011;36794;51.212;6.980;2023-09-18T05:10:20;11.30;;;3.50;;
50821;SDS011;36794;51.212;6.980;2023-09-18T05:12:46;14.48;;;4.18;;
50821;SDS011;36794;51.212;6.980;2023-09-18T05:15:13;18.00;;;5.00;;
50821;SDS011;36794;51.212;6.980;2023-09-18T05:17:40;18.65;;;4.00;;
50821;SDS011;36794;51.212;6.980;2023-09-18T05:20:07;14.25;;;3.53;;
50821;SDS011;36794;51.212;6.980;2023-09-18T05:22:34;14.68;;;3.88;;
50821;SDS011;36794;51.212;6.980;2023-09-18T05:25:01;17.17;;;3.58;;
50821;SDS011;36794;51.212;6.980;2023-09-18T05:27:27;14.98;;;3.38;;
50821;SDS011;36794;51.212;6.980;2023-09-18T05:29:53;13.07;;;3.35;;
50821;SDS011;36794;51.212;6.980;2023-09-18T05:32:19;12.85;;;4.32;;
50821;SDS011;36794;51.212;6.980;2023-09-18T05:34:45;8.35;;;3.30;;
50821;SDS011;36794;51.212;6.980;2023-09-18T05:37:11;17.30;;;3.53;;
50821;SDS011;36794;51.212;6.980;2023-09-18T05:39:37;12.88;;;2.88;;
50821;SDS011;36794;51.212;6.980;2023-09-18T05:42:03;13.43;;;3.40;;
50821;SDS011;36794;51.212;6.980;2023-09-18T05:44:29;14.27;;;3.35;;
50821;SDS011;36794;51.212;6.980;2023-09-18T05:46:55;15.20;;;3.42;;
50821;SDS011;36794;51.212;6.980;2023-09-18T05:49:20;15.32;;;3.20;;
50821;SDS011;36794;51.212;6.980;2023-09-18T05:51:46;14.13;;;3.05;;
50821;SDS011;36794;51.212;6.980;2023-09-18T05:54:13;20.10;;;3.80;;
50821;SDS011;36794;51.212;6.980;2023-09-18T05:56:39;12.57;;;3.70;;
50821;SDS011;36794;51.212;6.980;2023-09-18T05:59:05;12.85;;;3.40;;
50821;SDS011;36794;51.212;6.980;2023-09-18T06:01:31;10.63;;;3.58;;
50821;SDS011;36794;51.212;6.980;2023-09-18T06:03:58;17.52;;;4.20;;
50821;SDS011;36794;51.212;6.980;2023-09-18T06:06:24;12.85;;;3.10;;
50821;SDS011;36794;51.212;6.980;2023-09-18T06:08:52;11.30;;;3.22;;
50821;SDS011;36794;51.212;6.980;2023-09-18T06:11:18;13.52;;;3.20;;
50821;SDS011;36794;51.212;6.980;2023-09-18T06:13:44;10.85;;;3.10;;
50821;SDS011;36794;51.212;6.980;2023-09-18T06:16:10;13.65;;;3.67;;
50821;SDS011;36794;51.212;6.980;2023-09-18T06:18:36;12.63;;;3.15;;
50821;SDS011;36794;51.212;6.980;2023-09-18T06:21:05;16.95;;;3.17;;
50821;SDS011;36794;51.212;6.980;2023-09-18T06:23:31;13.65;;;3.30;;
50821;SDS011;36794;51.212;6.980;2023-09-18T06:25:58;12.77;;;2.85;;
50821;SDS011;36794;51.212;6.980;2023-09-18T06:28:24;12.80;;;2.92;;
50821;SDS011;36794;51.212;6.980;2023-09-18T06:30:50;8.55;;;2.88;;
50821;SDS011;36794;51.212;6.980;2023-09-18T06:33:18;11.15;;;3.00;;
50821;SDS011;36794;51.212;6.980;2023-09-18T06:35:44;15.70;;;3.03;;
50821;SDS011;36794;51.212;6.980;2023-09-18T06:38:10;15.38;;;2.97;;
50821;SDS011;36794;51.212;6.980;2023-09-18T06:40:37;12.15;;;3.17;;
50821;SDS011;36794;51.212;6.980;2023-09-18T06:43:04;12.20;;;3.17;;
50821;SDS011;36794;51.212;6.980;2023-09-18T06:45:30;10.10;;;2.70;;
50821;SDS011;36794;51.212;6.980;2023-09-18T06:47:57;12.52;;;2.53;;
50821;SDS011;36794;51.212;6.980;2023-09-18T06:50:23;10.93;;;3.30;;
50821;SDS011;36794;51.212;6.980;2023-09-18T06:52:49;8.73;;;2.33;;
50821;SDS011;36794;51.212;6.980;2023-09-18T06:55:15;11.50;;;2.78;;
50821;SDS011;36794;51.212;6.980;2023-09-18T06:57:42;11.80;;;2.80;;
50821;SDS011;36794;51.212;6.980;2023-09-18T07:00:08;9.35;;;2.50;;
50821;SDS011;36794;51.212;6.980;2023-09-18T07:02:34;10.40;;;3.38;;
50821;SDS011;36794;51.212;6.980;2023-09-18T07:05:00;6.93;;;2.47;;
50821;SDS011;36794;51.212;6.980;2023-09-18T07:07:26;11.18;;;2.72;;
50821;SDS011;36794;51.212;6.980;2023-09-18T07:09:52;10.63;;;2.50;;
50821;SDS011;36794;51.212;6.980;2023-09-18T07:12:18;9.80;;;2.30;;
50821;SDS011;36794;51.212;6.980;2023-09-18T07:14:44;9.88;;;2.60;;
50821;SDS011;36794;51.212;6.980;2023-09-18T07:17:10;12.60;;;2.33;;
50821;SDS011;36794;51.212;6.980;2023-09-18T07:19:36;12.60;;;2.35;;
50821;SDS011;36794;51.212;6.980;2023-09-18T07:22:02;7.80;;;2.42;;
50821;SDS011;36794;51.212;6.980;2023-09-18T07:24:28;7.80;;;2.20;;
50821;SDS011;36794;51.212;6.980;2023-09-18T07:26:54;12.40;;;1.80;;
50821;SDS011;36794;51.212;6.980;2023-09-18T07:29:22;9.63;;;2.03;;
50821;SDS011;36794;51.212;6.980;2023-09-18T07:31:50;6.03;;;2.00;;
50821;SDS011;36794;51.212;6.980;2023-09-18T07:34:16;8.88;;;2.00;;
50821;SDS011;36794;51.212;6.980;2023-09-18T07:36:42;8.13;;;2.38;;
50821;SDS011;36794;51.212;6.980;2023-09-18T07:39:09;10.18;;;2.38;;
50821;SDS011;36794;51.212;6.980;2023-09-18T07:41:36;7.70;;;2.35;;
50821;SDS011;36794;51.212;6.980;2023-09-18T07:44:02;9.38;;;2.55;;
50821;SDS011;36794;51.212;6.980;2023-09-18T07:46:29;9.07;;;2.03;;
50821;SDS011;36794;51.212;6.980;2023-09-18T07:48:55;10.13;;;2.75;;
50821;SDS011;36794;51.212;6.980;2023-09-18T07:51:21;7.25;;;2.05;;
50821;SDS011;36794;51.212;6.980;2023-09-18T07:53:48;10.98;;;2.47;;
50821;SDS011;36794;51.212;6.980;2023-09-18T07:56:14;7.65;;;1.80;;
50821;SDS011;36794;51.212;6.980;2023-09-18T07:58:40;11.00;;;1.90;;
50821;SDS011;36794;51.212;6.980;2023-09-18T08:01:06;7.03;;;1.77;;
50821;SDS011;36794;51.212;6.980;2023-09-18T08:03:33;7.35;;;2.17;;
50821;SDS011;36794;51.212;6.980;2023-09-18T08:05:59;8.68;;;2.03;;
50821;SDS011;36794;51.212;6.980;2023-09-18T08:08:25;6.03;;;1.92;;
50821;SDS011;36794;51.212;6.980;2023-09-18T08:10:52;4.47;;;1.60;;
50821;SDS011;36794;51.212;6.980;2023-09-18T08:13:18;8.13;;;1.48;;
50821;SDS011;36794;51.212;6.980;2023-09-18T08:15:49;7.80;;;2.05;;
50821;SDS011;36794;51.212;6.980;2023-09-18T08:18:15;6.38;;;1.75;;
50821;SDS011;36794;51.212;6.980;2023-09-18T08:20:44;5.82;;;1.27;;
50821;SDS011;36794;51.212;6.980;2023-09-18T08:23:11;4.65;;;1.30;;
50821;SDS011;36794;51.212;6.980;2023-09-18T08:25:37;6.05;;;1.48;;
50821;SDS011;36794;51.212;6.980;2023-09-18T08:28:05;8.60;;;1.73;;
50821;SDS011;36794;51.212;6.980;2023-09-18T08:30:31;5.07;;;1.50;;
50821;SDS011;36794;51.212;6.980;2023-09-18T08:32:57;6.85;;;1.70;;
50821;SDS011;36794;51.212;6.980;2023-09-18T08:35:23;6.15;;;1.30;;
50821;SDS011;36794;51.212;6.980;2023-09-18T08:37:54;4.97;;;1.30;;
50821;SDS011;36794;51.212;6.980;2023-09-18T08:40:20;6.95;;;1.50;;
50821;SDS011;36794;51.212;6.980;2023-09-18T08:42:46;5.18;;;1.60;;
50821;SDS011;36794;51.212;6.980;2023-09-18T08:45:23;3.20;;;1.00;;
50821;SDS011;36794;51.212;6.980;2023-09-18T08:47:51;5.97;;;1.20;;
50821;SDS011;36794;51.212;6.980;2023-09-18T08:50:18;5.53;;;1.10;;
50821;SDS011;36794;51.212;6.980;2023-09-18T08:52:46;4.10;;;1.55;;
50821;SDS011;36794;51.212;6.980;2023-09-18T08:55:12;6.45;;;1.13;;
50821;SDS011;36794;51.212;6.980;2023-09-18T08:57:39;5.35;;;1.20;;
50821;SDS011;36794;51.212;6.980;2023-09-18T09:00:05;4.68;;;1.33;;
50821;SDS011;36794;51.212;6.980;2023-09-18T09:02:33;3.80;;;1.15;;
50821;SDS011;36794;51.212;6.980;2023-09-18T09:04:59;3.75;;;0.90;;
50821;SDS011;36794;51.212;6.980;2023-09-18T09:07:25;3.83;;;1.08;;
50821;SDS011;36794;51.212;6.980;2023-09-18T09:09:53;4.78;;;1.40;;
50821;SDS011;36794;51.212;6.980;2023-09-18T09:15:05;4.75;;;1.20;;
50821;SDS011;36794;51.212;6.980;2023-09-18T09:17:31;2.80;;;0.90;;
50821;SDS011;36794;51.212;6.980;2023-09-18T09:20:07;5.70;;;1.27;;
50821;SDS011;36794;51.212;6.980;2023-09-18T09:22:36;3.80;;;1.02;;
50821;SDS011;36794;51.212;6.980;2023-09-18T09:25:02;6.30;;;0.88;;
50821;SDS011;36794;51.212;6.980;2023-09-18T09:27:28;5.18;;;0.90;;
50821;SDS011;36794;51.212;6.980;2023-09-18T09:29:58;5.28;;;1.10;;
50821;SDS011;36794;51.212;6.980;2023-09-18T09:32:24;2.20;;;0.90;;
50821;SDS011;36794;51.212;6.980;2023-09-18T09:34:50;2.65;;;0.85;;
50821;SDS011;36794;51.212;6.980;2023-09-18T09:37:29;5.53;;;1.50;;
50821;SDS011;36794;51.212;6.980;2023-09-18T09:39:56;5.53;;;1.00;;
50821;SDS011;36794;51.212;6.980;2023-09-18T09:42:24;5.03;;;1.17;;
50821;SDS011;36794;51.212;6.980;2023-09-18T09:45:01;5.47;;;1.40;;
50821;SDS011;36794;51.212;6.980;2023-09-18T09:47:30;4.43;;;1.00;;
50821;SDS011;36794;51.212;6.980;2023-09-18T09:49:57;4.35;;;1.08;;
50821;SDS011;36794;51.212;6.980;2023-09-18T09:52:23;3.85;;;1.25;;
50821;SDS011;36794;51.212;6.980;2023-09-18T09:54:49;9.50;;;1.30;;
50821;SDS011;36794;51.212;6.980;2023-09-18T09:57:15;5.20;;;0.95;;
50821;SDS011;36794;51.212;6.980;2023-09-18T09:59:41;3.70;;;0.93;;
50821;SDS011;36794;51.212;6.980;2023-09-18T10:02:10;2.72;;;0.80;;
50821;SDS011;36794;51.212;6.980;2023-09-18T10:04:44;5.32;;;0.80;;
50821;SDS011;36794;51.212;6.980;2023-09-18T10:07:13;4.15;;;1.20;;
50821;SDS011;36794;51.212;6.980;2023-09-18T10:09:41;3.45;;;0.90;;
50821;SDS011;36794;51.212;6.980;2023-09-18T10:12:11;3.30;;;0.85;;
50821;SDS011;36794;51.212;6.980;2023-09-18T10:14:38;6.80;;;1.20;;
50821;SDS011;36794;51.212;6.980;2023-09-18T10:17:11;4.60;;;1.20;;
50821;SDS011;36794;51.212;6.980;2023-09-18T10:19:54;4.75;;;0.90;;
50821;SDS011;36794;51.212;6.980;2023-09-18T10:24:53;2.50;;;1.00;;
50821;SDS011;36794;51.212;6.980;2023-09-18T10:27:22;2.85;;;0.90;;
50821;SDS011;36794;51.212;6.980;2023-09-18T10:29:51;3.83;;;1.17;;
50821;SDS011;36794;51.212;6.980;2023-09-18T10:32:17;4.28;;;0.88;;
50821;SDS011;36794;51.212;6.980;2023-09-18T10:34:45;4.40;;;1.23;;
50821;SDS011;36794;51.212;6.980;2023-09-18T10:37:12;6.18;;;0.80;;
50821;SDS011;36794;51.212;6.980;2023-09-18T10:39:39;5.03;;;1.10;;
50821;SDS011;36794;51.212;6.980;2023-09-18T10:42:07;1.95;;;0.80;;
50821;SDS011;36794;51.212;6.980;2023-09-18T10:44:34;3.25;;;1.02;;
50821;SDS011;36794;51.212;6.980;2023-09-18T10:47:00;6.28;;;0.90;;
50821;SDS011;36794;51.212;6.980;2023-09-18T10:49:27;4.25;;;0.77;;
50821;SDS011;36794;51.212;6.980;2023-09-18T10:51:54;5.40;;;0.82;;
50821;SDS011;36794;51.212;6.980;2023-09-18T10:54:21;2.83;;;0.80;;
50821;SDS011;36794;51.212;6.980;2023-09-18T10:56:47;2.13;;;0.85;;
50821;SDS011;36794;51.212;6.980;2023-09-18T10:59:14;7.43;;;1.00;;
50821;SDS011;36794;51.212;6.980;2023-09-18T11:01:40;4.93;;;0.90;;
50821;SDS011;36794;51.212;6.980;2023-09-18T11:04:07;3.67;;;0.63;;
50821;SDS011;36794;51.212;6.980;2023-09-18T11:09:23;4.50;;;0.73;;
50821;SDS011;36794;51.212;6.980;2023-09-18T11:14:22;8.15;;;1.17;;
50821;SDS011;36794;51.212;6.980;2023-09-18T11:16:49;5.45;;;1.25;;
50821;SDS011;36794;51.212;6.980;2023-09-18T11:19:18;8.30;;;1.10;;
50821;SDS011;36794;51.212;6.980;2023-09-18T11:21:45;5.18;;;1.02;;
50821;SDS011;36794;51.212;6.980;2023-09-18T11:24:15;6.35;;;1.20;;
50821;SDS011;36794;51.212;6.980;2023-09-18T11:26:42;8.60;;;1.08;;
50821;SDS011;36794;51.212;6.980;2023-09-18T11:29:09;4.25;;;0.70;;
50821;SDS011;36794;51.212;6.980;2023-09-18T11:34:15;5.78;;;0.80;;
50821;SDS011;36794;51.212;6.980;2023-09-18T11:36:41;3.05;;;0.80;;
50821;SDS011;36794;51.212;6.980;2023-09-18T11:39:07;3.30;;;0.82;;
50821;SDS011;36794;51.212;6.980;2023-09-18T11:41:34;4.03;;;0.73;;
50821;SDS011;36794;51.212;6.980;2023-09-18T11:46:39;5.22;;;0.90;;
50821;SDS011;36794;51.212;6.980;2023-09-18T11:49:06;5.28;;;0.80;;
50821;SDS011;36794;51.212;6.980;2023-09-18T11:51:33;15.38;;;1.50;;
50821;SDS011;36794;51.212;6.980;2023-09-18T11:54:00;1.73;;;0.80;;
50821;SDS011;36794;51.212;6.980;2023-09-18T11:56:26;5.88;;;0.90;;
50821;SDS011;36794;51.212;6.980;2023-09-18T11:58:54;5.53;;;0.85;;
50821;SDS011;36794;51.212;6.980;2023-09-18T12:01:20;3.10;;;1.08;;
50821;SDS011;36794;51.212;6.980;2023-09-18T12:03:52;1.80;;;0.63;;
50821;SDS011;36794;51.212;6.980;2023-09-18T12:06:18;2.85;;;0.80;;
50821;SDS011;36794;51.212;6.980;2023-09-18T12:08:44;2.20;;;0.90;;
50821;SDS011;36794;51.212;6.980;2023-09-18T12:11:11;3.92;;;1.00;;
50821;SDS011;36794;51.212;6.980;2023-09-18T12:13:42;3.42;;;1.13;;
50821;SDS011;36794;51.212;6.980;2023-09-18T12:16:08;4.18;;;0.90;;
50821;SDS011;36794;51.212;6.980;2023-09-18T12:18:34;2.30;;;1.08;;
50821;SDS011;36794;51.212;6.980;2023-09-18T12:21:05;4.55;;;0.90;;
50821;SDS011;36794;51.212;6.980;2023-09-18T12:23:38;4.72;;;1.15;;
50821;SDS011;36794;51.212;6.980;2023-09-18T12:26:04;2.25;;;1.00;;
50821;SDS011;36794;51.212;6.980;2023-09-18T12:28:32;4.05;;;1.00;;
50821;SDS011;36794;51.212;6.980;2023-09-18T12:30:58;3.78;;;1.17;;
50821;SDS011;36794;51.212;6.980;2023-09-18T12:33:29;2.47;;;1.00;;
50821;SDS011;36794;51.212;6.980;2023-09-18T12:35:57;4.00;;;1.10;;
50821;SDS011;36794;51.212;6.980;2023-09-18T12:38:23;8.98;;;1.40;;
50821;SDS011;36794;51.212;6.980;2023-09-18T12:40:52;6.28;;;1.42;;
50821;SDS011;36794;51.212;6.980;2023-09-18T12:43:18;34.38;;;4.40;;
50821;SDS011;36794;51.212;6.980;2023-09-18T12:45:44;29.20;;;5.90;;
50821;SDS011;36794;51.212;6.980;2023-09-18T12:48:11;27.67;;;5.20;;
50821;SDS011;36794;51.212;6.980;2023-09-18T12:50:38;40.10;;;8.02;;
50821;SDS011;36794;51.212;6.980;2023-09-18T12:53:10;9.90;;;2.70;;
50821;SDS011;36794;51.212;6.980;2023-09-18T12:55:37;13.17;;;2.90;;
50821;SDS011;36794;51.212;6.980;2023-09-18T12:58:03;21.63;;;5.20;;
50821;SDS011;36794;51.212;6.980;2023-09-18T13:00:32;8.68;;;2.38;;
50821;SDS011;36794;51.212;6.980;2023-09-18T13:02:58;14.18;;;3.45;;
50821;SDS011;36794;51.212;6.980;2023-09-18T13:05:24;5.43;;;1.50;;
50821;SDS011;36794;51.212;6.980;2023-09-18T13:07:51;13.07;;;2.08;;
50821;SDS011;36794;51.212;6.980;2023-09-18T13:10:18;13.43;;;2.75;;
50821;SDS011;36794;51.212;6.980;2023-09-18T13:15:24;10.82;;;2.05;;
50821;SDS011;36794;51.212;6.980;2023-09-18T13:17:52;13.50;;;2.05;;
50821;SDS011;36794;51.212;6.980;2023-09-18T13:20:21;44.00;;;5.57;;
50821;SDS011;36794;51.212;6.980;2023-09-18T13:22:52;22.65;;;3.35;;
50821;SDS011;36794;51.212;6.980;2023-09-18T13:25:21;7.90;;;1.98;;
50821;SDS011;36794;51.212;6.980;2023-09-18T13:27:48;8.23;;;1.40;;
50821;SDS011;36794;51.212;6.980;2023-09-18T13:30:14;18.75;;;2.17;;
50821;SDS011;36794;51.212;6.980;2023-09-18T13:32:43;12.90;;;1.83;;
50821;SDS011;36794;51.212;6.980;2023-09-18T13:35:09;13.50;;;2.33;;
50821;SDS011;36794;51.212;6.980;2023-09-18T13:37:36;6.38;;;1.45;;
50821;SDS011;36794;51.212;6.980;2023-09-18T13:40:02;13.20;;;1.70;;
50821;SDS011;36794;51.212;6.980;2023-09-18T13:42:31;9.27;;;1.63;;
50821;SDS011;36794;51.212;6.980;2023-09-18T13:45:00;8.35;;;1.08;;
50821;SDS011;36794;51.212;6.980;2023-09-18T13:47:27;5.28;;;0.90;;
50821;SDS011;36794;51.212;6.980;2023-09-18T13:49:53;7.20;;;0.90;;
50821;SDS011;36794;51.212;6.980;2023-09-18T13:52:24;6.07;;;1.00;;
50821;SDS011;36794;51.212;6.980;2023-09-18T13:54:50;4.05;;;1.10;;
50821;SDS011;36794;51.212;6.980;2023-09-18T13:57:17;3.45;;;0.90;;
50821;SDS011;36794;51.212;6.980;2023-09-18T13:59:44;5.65;;;1.30;;
50821;SDS011;36794;51.212;6.980;2023-09-18T14:02:10;3.75;;;1.10;;
50821;SDS011;36794;51.212;6.980;2023-09-18T14:04:36;7.95;;;0.90;;
50821;SDS011;36794;51.212;6.980;2023-09-18T14:07:02;9.98;;;0.82;;
50821;SDS011;36794;51.212;6.980;2023-09-18T14:09:28;5.85;;;0.93;;
50821;SDS011;36794;51.212;6.980;2023-09-18T14:11:54;7.55;;;1.35;;
50821;SDS011;36794;51.212;6.980;2023-09-18T14:14:21;6.63;;;1.10;;
50821;SDS011;36794;51.212;6.980;2023-09-18T14:16:47;4.40;;;0.88;;
50821;SDS011;36794;51.212;6.980;2023-09-18T14:19:15;4.55;;;1.20;;
50821;SDS011;36794;51.212;6.980;2023-09-18T14:21:41;6.13;;;0.93;;
50821;SDS011;36794;51.212;6.980;2023-09-18T14:24:08;9.77;;;1.23;;
50821;SDS011;36794;51.212;6.980;2023-09-18T14:26:34;9.35;;;1.17;;
50821;SDS011;36794;51.212;6.980;2023-09-18T14:29:06;4.43;;;0.95;;
50821;SDS011;36794;51.212;6.980;2023-09-18T14:31:33;2.50;;;1.08;;
50821;SDS011;36794;51.212;6.980;2023-09-18T14:33:59;4.90;;;0.82;;
50821;SDS011;36794;51.212;6.980;2023-09-18T14:36:25;10.20;;;1.48;;
50821;SDS011;36794;51.212;6.980;2023-09-18T14:38:51;5.32;;;0.80;;
50821;SDS011;36794;51.212;6.980;2023-09-18T14:41:17;9.02;;;1.17;;
50821;SDS011;36794;51.212;6.980;2023-09-18T14:43:46;5.50;;;0.98;;
50821;SDS011;36794;51.212;6.980;2023-09-18T14:46:12;4.00;;;1.00;;
50821;SDS011;36794;51.212;6.980;2023-09-18T14:48:38;3.03;;;1.10;;
50821;SDS011;36794;51.212;6.980;2023-09-18T14:51:04;6.55;;;1.10;;
50821;SDS011;36794;51.212;6.980;2023-09-18T14:53:31;4.75;;;1.40;;
50821;SDS011;36794;51.212;6.980;2023-09-18T14:55:57;5.78;;;0.75;;
50821;SDS011;36794;51.212;6.980;2023-09-18T14:58:23;3.30;;;0.90;;
50821;SDS011;36794;51.212;6.980;2023-09-18T15:00:50;6.25;;;0.90;;